Time,TemperatureF,DewpointF,PressureIn,WindDirection,WindDirectionDegrees,WindSpeedMPH,WindSpeedGustMPH,Humidity,HourlyPrecipIn,Conditions,Clouds,dailyrainin,SoftwareType,DateUTC
2013-03-15 00:00:00,47.3,32.8,29.85,NW,324,0.0,3.0,57,0.00,CLR,,0.00,WeatherDisplay:10.37,2013-03-15 07:00:00,
2013-03-15 00:05:00,47.7,33.6,29.85,WSW,248,2.0,6.0,58,0.00,CLR,,0.00,WeatherDisplay:10.37,2013-03-15 07:05:00,
2013-03-15 00:10:00,47.8,34.6,29.85,WSW,250,3.0,7.0,60,0.00,CLR,,0.00,WeatherDisplay:10.37,2013-03-15 07:10:00,
2013-03-15 00:20:00,47.7,35.7,29.85,West,259,6.0,9.0,63,0.00,CLR,,0.00,WeatherDisplay:10.37,2013-03-15 07:20:00,
2013-03-15 00:30:00,47.3,36.5,29.85,SW,233,2.0,6.0,66,0.00,CLR,,0.00,WeatherDisplay:10.37,2013-03-15 07:30:00,
2013-03-15 00:40:00,47.1,36.3,29.85,West,260,3.0,8.0,66,0.00,CLR,,0.00,WeatherDisplay:10.37,2013-03-15 07:40:00,
2013-03-15 00:45:00,47.0,36.3,29.85,West,264,5.0,6.0,66,0.00,CLR,,0.00,WeatherDisplay:10.37,2013-03-15 07:45:00,
2013-03-15 00:50:00,47.1,35.5,29.85,WNW,285,1.0,6.0,64,0.00,CLR,,0.00,WeatherDisplay:10.37,2013-03-15 07:50:00,
2013-03-15 01:00:00,46.4,34.1,29.85,ESE,114,0.0,4.0,62,0.00,CLR,,0.00,WeatherDisplay:10.37,2013-03-15 08:00:00,
2013-03-15 01:05:00,46.2,33.9,29.85,SW,215,0.0,6.0,62,0.00,CLR,,0.00,WeatherDisplay:10.37,2013-03-15 08:05:00,
2013-03-15 01:10:00,46.4,34.1,29.85,WSW,237,5.0,7.0,62,0.00,CLR,,0.00,WeatherDisplay:10.37,2013-03-15 08:10:00,
2013-03-15 01:15:00,46.8,35.2,29.85,WSW,255,5.0,8.0,64,0.00,CLR,,0.00,WeatherDisplay:10.37,2013-03-15 08:15:00,
2013-03-15 01:25:00,47.1,36.7,29.85,WNW,288,6.0,10.0,67,0.00,CLR,,0.00,WeatherDisplay:10.37,2013-03-15 08:25:00,
2013-03-15 01:30:00,47.3,37.2,29.85,WNW,299,6.0,12.0,68,0.00,CLR,,0.00,WeatherDisplay:10.37,2013-03-15 08:30:00,
2013-03-15 01:40:00,46.9,37.3,29.85,West,269,5.0,8.0,69,0.00,CLR,,0.00,WeatherDisplay:10.37,2013-03-15 08:40:00,
2013-03-15 01:45:00,47.1,37.5,29.88,West,263,3.0,12.0,69,0.00,CLR,,0.00,WeatherDisplay:10.37,2013-03-15 08:45:00,
2013-03-15 01:50:00,47.0,37.8,29.88,WSW,248,5.0,8.0,70,0.00,CLR,,0.00,WeatherDisplay:10.37,2013-03-15 08:50:00,
2013-03-15 01:55:00,46.9,37.7,29.88,WSW,246,5.0,8.0,70,0.00,CLR,,0.00,WeatherDisplay:10.37,2013-03-15 08:55:00,
2013-03-15 02:00:00,47.0,37.7,29.85,West,272,5.0,10.0,70,0.00,CLR,,0.00,WeatherDisplay:10.37,2013-03-15 09:00:00,
2013-03-15 02:05:00,46.9,37.7,29.85,WNW,290,5.0,8.0,70,0.00,CLR,,0.00,WeatherDisplay:10.37,2013-03-15 09:05:00,
2013-03-15 02:10:00,46.9,38.0,29.85,WNW,287,6.0,8.0,71,0.00,CLR,,0.00,WeatherDisplay:10.37,2013-03-15 09:10:00,
2013-03-15 02:15:00,47.1,38.2,29.85,WNW,287,6.0,9.0,71,0.00,CLR,,0.00,WeatherDisplay:10.37,2013-03-15 09:15:00,
2013-03-15 02:20:00,47.1,38.5,29.85,NW,318,2.0,8.0,72,0.00,CLR,,0.00,WeatherDisplay:10.37,2013-03-15 09:20:00,
2013-03-15 02:30:00,46.0,36.4,29.85,ENE,68,2.0,5.0,69,0.00,CLR,,0.00,WeatherDisplay:10.37,2013-03-15 09:30:00,
2013-03-15 02:40:00,46.1,36.2,29.85,WSW,248,0.0,0.0,68,0.00,CLR,,0.00,WeatherDisplay:10.37,2013-03-15 09:40:00,
2013-03-15 02:50:00,45.7,36.1,29.85,WSW,246,0.0,3.0,69,0.00,CLR,,0.00,WeatherDisplay:10.37,2013-03-15 09:50:00,
2013-03-15 02:55:00,45.7,36.1,29.85,West,259,0.0,3.0,69,0.00,CLR,,0.00,WeatherDisplay:10.37,2013-03-15 09:55:00,
2013-03-15 03:00:00,45.3,35.4,29.83,West,281,0.0,0.0,68,0.00,CLR,,0.00,WeatherDisplay:10.37,2013-03-15 10:00:00,
2013-03-15 03:05:00,45.3,35.4,29.83,WNW,292,0.0,0.0,68,0.00,CLR,,0.00,WeatherDisplay:10.37,2013-03-15 10:05:00,
2013-03-15 03:10:00,45.3,35.4,29.83,WNW,292,0.0,0.0,68,0.00,CLR,,0.00,WeatherDisplay:10.37,2013-03-15 10:10:00,
2013-03-15 03:20:00,45.3,35.7,29.83,NW,315,0.0,2.0,69,0.00,CLR,,0.00,WeatherDisplay:10.37,2013-03-15 10:20:00,
2013-03-15 03:30:00,45.5,35.9,29.85,SSW,199,0.0,6.0,69,0.00,CLR,,0.00,WeatherDisplay:10.37,2013-03-15 10:30:00,
2013-03-15 03:40:00,46.0,36.8,29.85,WNW,282,3.0,6.0,70,0.00,CLR,,0.00,WeatherDisplay:10.37,2013-03-15 10:40:00,
2013-03-15 03:50:00,46.4,37.1,29.85,ESE,107,0.0,6.0,70,0.00,CLR,,0.00,WeatherDisplay:10.37,2013-03-15 10:50:00,
2013-03-15 03:55:00,46.1,36.8,29.85,East,84,3.0,5.0,70,0.00,CLR,,0.00,WeatherDisplay:10.37,2013-03-15 10:55:00,
2013-03-15 04:00:00,45.9,36.3,29.83,East,94,0.0,4.0,69,0.00,CLR,,0.00,WeatherDisplay:10.37,2013-03-15 11:00:00,
2013-03-15 04:05:00,45.5,35.9,29.83,East,90,0.0,4.0,69,0.00,CLR,,0.00,WeatherDisplay:10.37,2013-03-15 11:05:00,
2013-03-15 04:10:00,45.3,35.4,29.83,East,90,0.0,0.0,68,0.00,CLR,,0.00,WeatherDisplay:10.37,2013-03-15 11:10:00,
2013-03-15 04:15:00,45.3,35.4,29.83,ENE,70,0.0,3.0,68,0.00,CLR,,0.00,WeatherDisplay:10.37,2013-03-15 11:15:00,
2013-03-15 04:20:00,45.3,35.3,29.83,North,357,0.0,4.0,68,0.00,CLR,,0.00,WeatherDisplay:10.37,2013-03-15 11:20:00,
2013-03-15 04:30:00,44.8,34.5,29.83,NNW,338,0.0,0.0,67,0.00,CLR,,0.00,WeatherDisplay:10.37,2013-03-15 11:30:00,
2013-03-15 04:35:00,44.8,34.9,29.83,NNW,338,0.0,0.0,68,0.00,CLR,,0.00,WeatherDisplay:10.37,2013-03-15 11:35:00,
2013-03-15 04:40:00,44.6,34.7,29.83,NNW,338,0.0,0.0,68,0.00,CLR,,0.00,WeatherDisplay:10.37,2013-03-15 11:40:00,
2013-03-15 04:50:00,44.8,34.9,29.83,NNW,338,0.0,0.0,68,0.00,CLR,,0.00,WeatherDisplay:10.37,2013-03-15 11:50:00,
2013-03-15 04:55:00,45.0,35.0,29.83,NW,306,0.0,3.0,68,0.00,CLR,,0.00,WeatherDisplay:10.37,2013-03-15 11:55:00,
2013-03-15 05:00:00,44.8,34.9,29.83,West,272,0.0,0.0,68,0.00,CLR,,0.00,WeatherDisplay:10.37,2013-03-15 12:00:00,
2013-03-15 05:10:00,45.0,34.7,29.83,West,270,0.0,3.0,67,0.00,CLR,,0.00,WeatherDisplay:10.37,2013-03-15 12:10:00,
2013-03-15 05:15:00,45.0,34.7,29.83,West,270,0.0,3.0,67,0.00,CLR,,0.00,WeatherDisplay:10.37,2013-03-15 12:15:00,
2013-03-15 05:20:00,45.0,34.7,29.83,WSW,257,0.0,3.0,67,0.00,CLR,,0.00,WeatherDisplay:10.37,2013-03-15 12:20:00,
2013-03-15 05:30:00,45.3,35.3,29.83,SE,129,0.0,0.0,68,0.00,CLR,,0.00,WeatherDisplay:10.37,2013-03-15 12:30:00,
2013-03-15 05:40:00,45.3,35.4,29.83,NE,45,0.0,3.0,68,0.00,CLR,,0.00,WeatherDisplay:10.37,2013-03-15 12:40:00,
2013-03-15 05:50:00,45.4,35.9,29.83,ENE,68,0.0,5.0,69,0.00,CLR,,0.00,WeatherDisplay:10.37,2013-03-15 12:50:00,
2013-03-15 05:55:00,45.5,35.9,29.83,SE,144,3.0,5.0,69,0.00,CLR,,0.00,WeatherDisplay:10.37,2013-03-15 12:55:00,
2013-03-15 06:00:00,45.5,35.9,29.83,WSW,254,3.0,5.0,69,0.00,CLR,,0.00,WeatherDisplay:10.37,2013-03-15 13:00:00,
2013-03-15 06:05:00,45.3,35.8,29.83,West,264,2.0,5.0,69,0.00,CLR,,0.00,WeatherDisplay:10.37,2013-03-15 13:05:00,
2013-03-15 06:10:00,45.5,35.9,29.83,West,270,3.0,5.0,69,0.00,CLR,,0.00,WeatherDisplay:10.37,2013-03-15 13:10:00,
2013-03-15 06:15:00,45.5,36.3,29.83,WSW,258,2.0,5.0,70,0.00,CLR,,0.00,WeatherDisplay:10.37,2013-03-15 13:15:00,
2013-03-15 06:20:00,45.7,36.5,29.83,West,278,1.0,3.0,70,0.00,CLR,,0.00,WeatherDisplay:10.37,2013-03-15 13:20:00,
2013-03-15 06:25:00,45.9,36.7,29.83,WNW,283,0.0,5.0,70,0.00,CLR,,0.00,WeatherDisplay:10.37,2013-03-15 13:25:00,
2013-03-15 06:30:00,46.0,36.8,29.83,WSW,248,0.0,4.0,70,0.00,CLR,,0.00,WeatherDisplay:10.37,2013-03-15 13:30:00,
2013-03-15 06:40:00,46.2,37.0,29.83,West,266,0.0,3.0,70,0.00,CLR,,0.00,WeatherDisplay:10.37,2013-03-15 13:40:00,
2013-03-15 06:45:00,46.3,37.4,29.83,West,260,0.0,3.0,71,0.00,CLR,,0.00,WeatherDisplay:10.37,2013-03-15 13:45:00,
2013-03-15 06:50:00,46.4,37.1,29.83,West,270,0.0,3.0,70,0.00,CLR,,0.00,WeatherDisplay:10.37,2013-03-15 13:50:00,
2013-03-15 06:55:00,46.2,37.0,29.83,WNW,292,0.0,0.0,70,0.00,CLR,,0.00,WeatherDisplay:10.37,2013-03-15 13:55:00,
2013-03-15 07:00:00,46.2,36.6,29.83,WNW,292,0.0,0.0,69,0.00,CLR,,0.00,WeatherDisplay:10.37,2013-03-15 14:00:00,
2013-03-15 07:05:00,46.2,36.6,29.83,WNW,292,0.0,0.0,69,0.00,CLR,,0.00,WeatherDisplay:10.37,2013-03-15 14:05:00,
2013-03-15 07:10:00,46.2,36.6,29.83,WNW,292,0.0,3.0,69,0.00,CLR,,0.00,WeatherDisplay:10.37,2013-03-15 14:10:00,
2013-03-15 07:15:00,46.4,36.8,29.85,West,264,2.0,5.0,69,0.00,CLR,,0.00,WeatherDisplay:10.37,2013-03-15 14:15:00,
2013-03-15 07:20:00,46.2,36.2,29.85,WSW,249,0.0,0.0,68,0.00,CLR,,0.00,WeatherDisplay:10.37,2013-03-15 14:20:00,
2013-03-15 07:25:00,46.2,36.2,29.85,WSW,248,0.0,0.0,68,0.00,CLR,,0.00,WeatherDisplay:10.37,2013-03-15 14:25:00,
2013-03-15 07:30:00,46.2,36.2,29.83,WSW,248,0.0,3.0,68,0.00,CLR,,0.00,WeatherDisplay:10.37,2013-03-15 14:30:00,
2013-03-15 07:35:00,46.5,36.5,29.83,WSW,248,0.0,2.0,68,0.00,CLR,,0.00,WeatherDisplay:10.37,2013-03-15 14:35:00,
2013-03-15 07:40:00,46.8,36.8,29.83,WSW,248,0.0,0.0,68,0.00,CLR,,0.00,WeatherDisplay:10.37,2013-03-15 14:40:00,
2013-03-15 07:50:00,47.1,37.1,29.83,WSW,248,0.0,0.0,68,0.00,CLR,,0.00,WeatherDisplay:10.37,2013-03-15 14:50:00,
2013-03-15 07:55:00,47.7,37.6,29.83,WSW,248,0.0,0.0,68,0.00,CLR,,0.00,WeatherDisplay:10.37,2013-03-15 14:55:00,
2013-03-15 08:00:00,47.7,37.6,29.83,WSW,248,0.0,0.0,68,0.00,CLR,,0.00,WeatherDisplay:10.37,2013-03-15 15:00:00,
2013-03-15 08:05:00,48.7,38.3,29.83,WSW,248,0.0,0.0,67,0.00,CLR,,0.00,WeatherDisplay:10.37,2013-03-15 15:05:00,
2013-03-15 08:10:00,48.9,38.1,29.83,WSW,248,0.0,0.0,66,0.00,CLR,,0.00,WeatherDisplay:10.37,2013-03-15 15:10:00,
2013-03-15 08:15:00,49.3,38.0,29.83,WSW,248,0.0,0.0,65,0.00,CLR,,0.00,WeatherDisplay:10.37,2013-03-15 15:15:00,
2013-03-15 08:20:00,49.6,38.0,29.83,WSW,248,0.0,0.0,64,0.00,CLR,,0.00,WeatherDisplay:10.37,2013-03-15 15:20:00,
2013-03-15 08:30:00,50.2,37.7,29.85,WSW,248,0.0,0.0,62,0.00,CLR,,0.00,WeatherDisplay:10.37,2013-03-15 15:30:00,
2013-03-15 08:35:00,50.5,37.2,29.85,WSW,248,0.0,0.0,60,0.00,CLR,,0.00,WeatherDisplay:10.37,2013-03-15 15:35:00,
2013-03-15 08:40:00,51.0,37.2,29.85,WSW,248,0.0,0.0,59,0.00,CLR,,0.00,WeatherDisplay:10.37,2013-03-15 15:40:00,
2013-03-15 08:50:00,51.9,36.7,29.83,WSW,248,0.0,0.0,56,0.00,CLR,,0.00,WeatherDisplay:10.37,2013-03-15 15:50:00,
2013-03-15 09:00:00,52.3,36.6,29.85,WSW,248,0.0,0.0,55,0.00,CLR,,0.00,WeatherDisplay:10.37,2013-03-15 16:00:00,
2013-03-15 09:05:00,52.5,35.4,29.85,WSW,248,0.0,0.0,52,0.00,CLR,,0.00,WeatherDisplay:10.37,2013-03-15 16:05:00,
2013-03-15 09:10:00,52.9,35.2,29.85,WSW,248,0.0,0.0,51,0.00,CLR,,0.00,WeatherDisplay:10.37,2013-03-15 16:10:00,
2013-03-15 09:15:00,54.0,35.7,29.85,WSW,248,0.0,0.0,50,0.00,CLR,,0.00,WeatherDisplay:10.37,2013-03-15 16:15:00,
2013-03-15 09:20:00,54.0,35.2,29.85,WSW,248,0.0,0.0,49,0.00,CLR,,0.00,WeatherDisplay:10.37,2013-03-15 16:20:00,
2013-03-15 09:30:00,55.1,35.8,29.85,WSW,248,0.0,0.0,48,0.00,CLR,,0.00,WeatherDisplay:10.37,2013-03-15 16:30:00,
2013-03-15 09:35:00,55.8,35.4,29.85,WSW,248,0.0,0.0,46,0.00,CLR,,0.00,WeatherDisplay:10.37,2013-03-15 16:35:00,
2013-03-15 09:40:00,56.8,36.2,29.85,WSW,248,0.0,0.0,46,0.00,CLR,,0.00,WeatherDisplay:10.37,2013-03-15 16:40:00,
2013-03-15 09:45:00,56.8,35.7,29.85,WSW,248,0.0,0.0,45,0.00,CLR,,0.00,WeatherDisplay:10.37,2013-03-15 16:45:00,
2013-03-15 09:50:00,57.2,35.4,29.85,WSW,248,0.0,0.0,44,0.00,CLR,,0.00,WeatherDisplay:10.37,2013-03-15 16:50:00,
2013-03-15 10:00:00,57.6,35.2,29.88,WSW,248,0.0,0.0,43,0.00,CLR,,0.00,WeatherDisplay:10.37,2013-03-15 17:00:00,
2013-03-15 10:05:00,58.1,35.1,29.88,WSW,248,0.0,0.0,42,0.00,CLR,,0.00,WeatherDisplay:10.37,2013-03-15 17:05:00,
2013-03-15 10:10:00,59.0,35.3,29.88,WSW,248,0.0,0.0,41,0.00,CLR,,0.00,WeatherDisplay:10.37,2013-03-15 17:10:00,
2013-03-15 13:00:00,69.4,28.9,29.83,ESE,115,3.0,6.0,22,0.00,CLR,,0.00,WeatherDisplay:10.37,2013-03-15 20:00:00,
2013-03-15 13:05:00,69.8,29.2,29.83,East,98,3.0,6.0,22,0.00,CLR,,0.00,WeatherDisplay:10.37,2013-03-15 20:05:00,
2013-03-15 13:10:00,70.2,29.5,29.83,ESE,104,0.0,5.0,22,0.00,CLR,,0.00,WeatherDisplay:10.37,2013-03-15 20:10:00,
2013-03-15 13:20:00,70.0,29.4,29.83,East,79,1.0,5.0,22,0.00,CLR,,0.00,WeatherDisplay:10.37,2013-03-15 20:20:00,
2013-03-15 13:25:00,70.6,29.9,29.83,ESE,121,2.0,3.0,22,0.00,CLR,,0.00,WeatherDisplay:10.37,2013-03-15 20:25:00,
2013-03-15 13:30:00,71.1,30.3,29.83,SE,135,0.0,3.0,22,0.00,CLR,,0.00,WeatherDisplay:10.37,2013-03-15 20:30:00,
2013-03-15 13:35:00,71.0,30.2,29.83,ESE,114,2.0,6.0,22,0.00,CLR,,0.00,WeatherDisplay:10.37,2013-03-15 20:35:00,
2013-03-15 13:40:00,70.8,30.0,29.83,East,95,1.0,6.0,22,0.00,CLR,,0.00,WeatherDisplay:10.37,2013-03-15 20:40:00,
2013-03-15 13:45:00,70.8,30.0,29.83,East,97,2.0,5.0,22,0.00,CLR,,0.00,WeatherDisplay:10.37,2013-03-15 20:45:00,
2013-03-15 13:50:00,70.6,29.9,29.83,ESE,109,0.0,5.0,22,0.00,CLR,,0.00,WeatherDisplay:10.37,2013-03-15 20:50:00,
2013-03-15 13:55:00,71.1,30.3,29.83,SE,129,3.0,6.0,22,0.00,CLR,,0.00,WeatherDisplay:10.37,2013-03-15 20:55:00,
2013-03-15 14:00:00,70.5,29.8,29.83,SW,215,3.0,9.0,22,0.00,CLR,,0.00,WeatherDisplay:10.37,2013-03-15 21:00:00,
2013-03-15 14:05:00,70.2,29.5,29.83,WSW,253,5.0,6.0,22,0.00,CLR,,0.00,WeatherDisplay:10.37,2013-03-15 21:05:00,
2013-03-15 14:10:00,69.2,28.7,29.83,West,264,2.0,8.0,22,0.00,CLR,,0.00,WeatherDisplay:10.37,2013-03-15 21:10:00,
2013-03-15 14:15:00,68.2,27.9,29.83,WNW,286,5.0,8.0,22,0.00,CLR,,0.00,WeatherDisplay:10.37,2013-03-15 21:15:00,
2013-03-15 14:20:00,68.2,27.9,29.83,West,275,5.0,8.0,22,0.00,CLR,,0.00,WeatherDisplay:10.37,2013-03-15 21:20:00,
2013-03-15 14:25:00,67.2,27.0,29.83,WNW,282,5.0,9.0,22,0.00,CLR,,0.00,WeatherDisplay:10.37,2013-03-15 21:25:00,
2013-03-15 14:30:00,66.5,26.4,29.83,West,267,5.0,9.0,22,0.00,CLR,,0.00,WeatherDisplay:10.37,2013-03-15 21:30:00,
2013-03-15 14:35:00,65.8,26.9,29.83,WSW,253,6.0,8.0,23,0.00,CLR,,0.00,WeatherDisplay:10.37,2013-03-15 21:35:00,
2013-03-15 14:40:00,63.3,24.8,29.83,WSW,257,9.0,13.0,23,0.00,CLR,,0.00,WeatherDisplay:10.37,2013-03-15 21:40:00,
2013-03-15 14:45:00,63.9,26.3,29.83,SW,223,5.0,9.0,24,0.00,CLR,,0.00,WeatherDisplay:10.37,2013-03-15 21:45:00,
2013-03-15 14:50:00,62.8,25.4,29.83,South,188,6.0,9.0,24,0.00,CLR,,0.00,WeatherDisplay:10.37,2013-03-15 21:50:00,
2013-03-15 14:55:00,62.4,26.1,29.83,South,185,3.0,10.0,25,0.00,CLR,,0.00,WeatherDisplay:10.37,2013-03-15 21:55:00,
2013-03-15 15:00:00,61.9,26.6,29.83,SSE,147,3.0,8.0,26,0.00,CLR,,0.00,WeatherDisplay:10.37,2013-03-15 22:00:00,
2013-03-15 15:05:00,62.9,26.5,29.83,SE,130,3.0,6.0,25,0.00,CLR,,0.00,WeatherDisplay:10.37,2013-03-15 22:05:00,
2013-03-15 15:15:00,63.9,27.3,29.83,SE,138,2.0,6.0,25,0.00,CLR,,0.00,WeatherDisplay:10.37,2013-03-15 22:15:00,
2013-03-15 15:20:00,64.5,26.9,29.83,East,82,2.0,6.0,24,0.00,CLR,,0.00,WeatherDisplay:10.37,2013-03-15 22:20:00,
2013-03-15 15:25:00,64.9,27.2,29.83,NE,55,2.0,6.0,24,0.00,CLR,,0.00,WeatherDisplay:10.37,2013-03-15 22:25:00,
2013-03-15 15:30:00,64.9,27.2,29.80,NNE,22,0.0,3.0,24,0.00,CLR,,0.00,WeatherDisplay:10.37,2013-03-15 22:30:00,
2013-03-15 15:35:00,64.8,27.2,29.80,NE,34,5.0,6.0,24,0.00,CLR,,0.00,WeatherDisplay:10.37,2013-03-15 22:35:00,
2013-03-15 15:40:00,64.5,26.8,29.80,ENE,59,2.0,6.0,24,0.00,CLR,,0.00,WeatherDisplay:10.37,2013-03-15 22:40:00,
2013-03-15 15:45:00,63.9,27.3,29.80,NE,55,3.0,7.0,25,0.00,CLR,,0.00,WeatherDisplay:10.37,2013-03-15 22:45:00,
2013-03-15 15:50:00,62.9,26.5,29.80,NE,47,5.0,7.0,25,0.00,CLR,,0.00,WeatherDisplay:10.37,2013-03-15 22:50:00,
2013-03-15 15:55:00,63.3,26.9,29.80,NNE,32,3.0,8.0,25,0.00,CLR,,0.00,WeatherDisplay:10.37,2013-03-15 22:55:00,
2013-03-15 16:05:00,62.2,26.9,29.80,SSW,212,3.0,6.0,26,0.00,CLR,,0.00,WeatherDisplay:10.37,2013-03-15 23:05:00,
2013-03-15 16:10:00,61.2,27.8,29.80,SSW,194,2.0,6.0,28,0.00,CLR,,0.00,WeatherDisplay:10.37,2013-03-15 23:10:00,
2013-03-15 16:15:00,61.5,27.2,29.80,ESE,103,3.0,6.0,27,0.00,CLR,,0.00,WeatherDisplay:10.37,2013-03-15 23:15:00,
2013-03-15 16:25:00,60.6,27.3,29.80,WNW,303,5.0,10.0,28,0.00,CLR,,0.00,WeatherDisplay:10.37,2013-03-15 23:25:00,
2013-03-15 16:30:00,59.9,28.4,29.80,WSW,254,6.0,10.0,30,0.00,CLR,,0.00,WeatherDisplay:10.37,2013-03-15 23:30:00,
2013-03-15 16:35:00,59.7,29.8,29.80,WSW,254,8.0,12.0,32,0.00,CLR,,0.00,WeatherDisplay:10.37,2013-03-15 23:35:00,
2013-03-15 16:40:00,59.7,29.8,29.80,WSW,249,5.0,12.0,32,0.00,CLR,,0.00,WeatherDisplay:10.37,2013-03-15 23:40:00,
2013-03-15 16:45:00,59.4,30.2,29.80,WSW,242,6.0,10.0,33,0.00,CLR,,0.00,WeatherDisplay:10.37,2013-03-15 23:45:00,
2013-03-15 16:50:00,59.4,30.2,29.80,SW,217,5.0,9.0,33,0.00,CLR,,0.00,WeatherDisplay:10.37,2013-03-15 23:50:00,
2013-03-15 16:55:00,58.8,30.5,29.80,SW,234,6.0,13.0,34,0.00,CLR,,0.00,WeatherDisplay:10.37,2013-03-15 23:55:00,
2013-03-15 17:00:00,59.0,30.6,29.80,WSW,256,3.0,10.0,34,0.00,CLR,,0.00,WeatherDisplay:10.37,2013-03-16 00:00:00,
2013-03-15 17:10:00,59.4,31.0,29.80,East,88,5.0,8.0,34,0.00,CLR,,0.00,WeatherDisplay:10.37,2013-03-16 00:10:00,
2013-03-15 17:15:00,59.1,30.8,29.80,East,92,3.0,8.0,34,0.00,CLR,,0.00,WeatherDisplay:10.37,2013-03-16 00:15:00,
2013-03-15 17:20:00,59.2,30.8,29.80,East,90,2.0,8.0,34,0.00,CLR,,0.00,WeatherDisplay:10.37,2013-03-16 00:20:00,
2013-03-15 17:25:00,58.9,30.6,29.80,SW,232,3.0,8.0,34,0.00,CLR,,0.00,WeatherDisplay:10.37,2013-03-16 00:25:00,
2013-03-15 17:30:00,58.4,30.8,29.80,West,263,6.0,9.0,35,0.00,CLR,,0.00,WeatherDisplay:10.37,2013-03-16 00:30:00,
2013-03-15 17:35:00,57.7,30.2,29.80,WSW,253,5.0,12.0,35,0.00,CLR,,0.00,WeatherDisplay:10.37,2013-03-16 00:35:00,
2013-03-15 17:40:00,57.5,30.0,29.80,WSW,249,6.0,10.0,35,0.00,CLR,,0.00,WeatherDisplay:10.37,2013-03-16 00:40:00,
2013-03-15 17:45:00,57.1,29.6,29.80,West,262,5.0,8.0,35,0.00,CLR,,0.00,WeatherDisplay:10.37,2013-03-16 00:45:00,
2013-03-15 17:50:00,56.9,30.2,29.80,WSW,252,5.0,8.0,36,0.00,CLR,,0.00,WeatherDisplay:10.37,2013-03-16 00:50:00,
2013-03-15 17:55:00,56.7,30.7,29.80,SW,218,3.0,8.0,37,0.00,CLR,,0.00,WeatherDisplay:10.37,2013-03-16 00:55:00,
2013-03-15 18:00:00,56.5,30.5,29.80,SE,130,3.0,9.0,37,0.00,CLR,,0.00,WeatherDisplay:10.37,2013-03-16 01:00:00,
2013-03-15 18:10:00,57.0,30.3,29.80,East,92,2.0,7.0,36,0.00,CLR,,0.00,WeatherDisplay:10.37,2013-03-16 01:10:00,
2013-03-15 18:15:00,57.0,30.3,29.80,ENE,58,5.0,8.0,36,0.00,CLR,,0.00,WeatherDisplay:10.37,2013-03-16 01:15:00,
2013-03-15 18:25:00,56.7,30.7,29.80,East,89,2.0,7.0,37,0.00,CLR,,0.00,WeatherDisplay:10.37,2013-03-16 01:25:00,
2013-03-15 18:30:00,56.5,30.5,29.80,ENE,70,6.0,8.0,37,0.00,CLR,,0.00,WeatherDisplay:10.37,2013-03-16 01:30:00,
2013-03-15 18:35:00,56.0,30.7,29.80,ENE,78,3.0,6.0,38,0.00,CLR,,0.00,WeatherDisplay:10.37,2013-03-16 01:35:00,
2013-03-15 18:40:00,55.8,29.9,29.80,ENE,67,0.0,6.0,37,0.00,CLR,,0.00,WeatherDisplay:10.37,2013-03-16 01:40:00,
2013-03-15 18:45:00,55.6,29.7,29.80,NE,46,5.0,6.0,37,0.00,CLR,,0.00,WeatherDisplay:10.37,2013-03-16 01:45:00,
2013-03-15 18:50:00,55.0,30.5,29.80,ENE,67,0.0,9.0,39,0.00,CLR,,0.00,WeatherDisplay:10.37,2013-03-16 01:50:00,
2013-03-15 18:55:00,54.9,31.0,29.80,ESE,122,0.0,7.0,40,0.00,CLR,,0.00,WeatherDisplay:10.37,2013-03-16 01:55:00,
2013-03-15 19:00:00,54.7,30.8,29.80,East,98,3.0,6.0,40,0.00,CLR,,0.00,WeatherDisplay:10.37,2013-03-16 02:00:00,
2013-03-15 19:05:00,54.5,30.6,29.80,ENE,63,2.0,5.0,40,0.00,CLR,,0.00,WeatherDisplay:10.37,2013-03-16 02:05:00,
2013-03-15 19:10:00,54.0,30.8,29.80,ENE,64,0.0,6.0,41,0.00,CLR,,0.00,WeatherDisplay:10.37,2013-03-16 02:10:00,
2013-03-15 19:15:00,53.5,31.6,29.80,ENE,72,5.0,7.0,43,0.00,CLR,,0.00,WeatherDisplay:10.37,2013-03-16 02:15:00,
2013-03-15 19:20:00,53.1,31.1,29.80,ENE,64,1.0,7.0,43,0.00,CLR,,0.00,WeatherDisplay:10.37,2013-03-16 02:20:00,
2013-03-15 19:25:00,52.7,30.8,29.80,NE,47,2.0,7.0,43,0.00,CLR,,0.00,WeatherDisplay:10.37,2013-03-16 02:25:00,
2013-03-15 19:30:00,52.2,31.0,29.80,NE,48,1.0,5.0,44,0.00,CLR,,0.00,WeatherDisplay:10.37,2013-03-16 02:30:00,
2013-03-15 19:35:00,52.2,30.9,29.80,ENE,66,3.0,6.0,44,0.00,CLR,,0.00,WeatherDisplay:10.37,2013-03-16 02:35:00,
2013-03-15 19:40:00,52.0,31.3,29.80,NE,55,2.0,5.0,45,0.00,CLR,,0.00,WeatherDisplay:10.37,2013-03-16 02:40:00,
2013-03-15 19:45:00,51.6,31.5,29.77,ENE,75,0.0,5.0,46,0.00,CLR,,0.00,WeatherDisplay:10.37,2013-03-16 02:45:00,
2013-03-15 19:50:00,51.4,31.3,29.77,ENE,74,0.0,3.0,46,0.00,CLR,,0.00,WeatherDisplay:10.37,2013-03-16 02:50:00,
2013-03-15 20:00:00,50.9,31.4,29.80,WSW,257,0.0,6.0,47,0.00,CLR,,0.00,WeatherDisplay:10.37,2013-03-16 03:00:00,
2013-03-15 20:05:00,50.5,32.6,29.80,East,99,5.0,6.0,50,0.00,CLR,,0.00,WeatherDisplay:10.37,2013-03-16 03:05:00,
2013-03-15 20:10:00,50.4,32.9,29.80,ESE,107,2.0,6.0,51,0.00,CLR,,0.00,WeatherDisplay:10.37,2013-03-16 03:10:00,
2013-03-15 20:15:00,50.5,33.5,29.77,SSW,203,1.0,6.0,52,0.00,CLR,,0.00,WeatherDisplay:10.37,2013-03-16 03:15:00,
2013-03-15 20:20:00,50.4,32.9,29.77,West,262,2.0,5.0,51,0.00,CLR,,0.00,WeatherDisplay:10.37,2013-03-16 03:20:00,
2013-03-15 20:25:00,50.4,32.4,29.77,SW,229,0.0,4.0,50,0.00,CLR,,0.00,WeatherDisplay:10.37,2013-03-16 03:25:00,
2013-03-15 20:30:00,50.2,32.7,29.80,South,174,2.0,5.0,51,0.00,CLR,,0.00,WeatherDisplay:10.37,2013-03-16 03:30:00,
2013-03-15 20:35:00,50.2,32.7,29.80,WSW,239,2.0,6.0,51,0.00,CLR,,0.00,WeatherDisplay:10.37,2013-03-16 03:35:00,
2013-03-15 20:40:00,49.8,33.4,29.80,SW,224,2.0,5.0,53,0.00,CLR,,0.00,WeatherDisplay:10.37,2013-03-16 03:40:00,
2013-03-15 20:50:00,49.6,34.6,29.80,ESE,116,0.0,5.0,56,0.00,CLR,,0.00,WeatherDisplay:10.37,2013-03-16 03:50:00,
2013-03-15 20:55:00,49.5,34.4,29.80,NE,45,1.0,6.0,56,0.00,CLR,,0.00,WeatherDisplay:10.37,2013-03-16 03:55:00,
2013-03-15 21:00:00,49.3,35.1,29.80,ENE,73,3.0,6.0,58,0.00,CLR,,0.00,WeatherDisplay:10.37,2013-03-16 04:00:00,
2013-03-15 21:05:00,49.3,34.7,29.80,East,81,2.0,5.0,57,0.00,CLR,,0.00,WeatherDisplay:10.37,2013-03-16 04:05:00,
2013-03-15 21:10:00,49.6,35.9,29.80,ENE,74,2.0,7.0,59,0.00,CLR,,0.00,WeatherDisplay:10.37,2013-03-16 04:10:00,
2013-03-15 21:15:00,49.6,37.1,29.80,ENE,70,3.0,6.0,62,0.00,CLR,,0.00,WeatherDisplay:10.37,2013-03-16 04:15:00,
2013-03-15 21:20:00,49.5,37.4,29.80,SW,227,5.0,9.0,63,0.00,CLR,,0.00,WeatherDisplay:10.37,2013-03-16 04:20:00,
2013-03-15 21:25:00,49.3,36.8,29.80,WSW,242,6.0,10.0,62,0.00,CLR,,0.00,WeatherDisplay:10.37,2013-03-16 04:25:00,
2013-03-15 21:30:00,49.4,37.3,29.80,WSW,239,5.0,12.0,63,0.00,CLR,,0.00,WeatherDisplay:10.37,2013-03-16 04:30:00,
2013-03-15 21:35:00,49.3,38.5,29.80,WNW,298,6.0,10.0,66,0.00,CLR,,0.00,WeatherDisplay:10.37,2013-03-16 04:35:00,
2013-03-15 21:40:00,49.1,38.3,29.80,WSW,256,3.0,9.0,66,0.00,CLR,,0.00,WeatherDisplay:10.37,2013-03-16 04:40:00,
2013-03-15 21:45:00,49.1,38.6,29.80,West,268,3.0,10.0,67,0.00,CLR,,0.00,WeatherDisplay:10.37,2013-03-16 04:45:00,
2013-03-15 21:50:00,49.1,38.6,29.80,West,270,6.0,10.0,67,0.00,CLR,,0.00,WeatherDisplay:10.37,2013-03-16 04:50:00,
2013-03-15 21:55:00,48.9,38.8,29.80,WSW,244,7.0,9.0,68,0.00,CLR,,0.00,WeatherDisplay:10.37,2013-03-16 04:55:00,
2013-03-15 22:00:00,49.1,39.3,29.80,WSW,245,9.0,12.0,69,0.00,CLR,,0.00,WeatherDisplay:10.37,2013-03-16 05:00:00,
2013-03-15 22:05:00,48.9,39.2,29.80,WSW,250,7.0,12.0,69,0.00,CLR,,0.00,WeatherDisplay:10.37,2013-03-16 05:05:00,
2013-03-15 22:10:00,48.7,38.6,29.80,WSW,249,8.0,13.0,68,0.00,CLR,,0.00,WeatherDisplay:10.37,2013-03-16 05:10:00,
2013-03-15 22:15:00,48.8,38.7,29.80,WSW,247,6.0,15.0,68,0.00,CLR,,0.00,WeatherDisplay:10.37,2013-03-16 05:15:00,
2013-03-15 22:20:00,48.7,38.6,29.80,SW,236,8.0,12.0,68,0.00,CLR,,0.00,WeatherDisplay:10.37,2013-03-16 05:20:00,
2013-03-15 22:25:00,48.6,38.5,29.80,SW,236,7.0,12.0,68,0.00,CLR,,0.00,WeatherDisplay:10.37,2013-03-16 05:25:00,
2013-03-15 22:30:00,48.4,38.3,29.80,WSW,248,7.0,13.0,68,0.00,CLR,,0.00,WeatherDisplay:10.37,2013-03-16 05:30:00,
2013-03-15 22:35:00,48.2,38.1,29.80,West,273,7.0,10.0,68,0.00,CLR,,0.00,WeatherDisplay:10.37,2013-03-16 05:35:00,
2013-03-15 22:45:00,48.2,37.8,29.80,SW,230,5.0,12.0,67,0.00,CLR,,0.00,WeatherDisplay:10.37,2013-03-16 05:45:00,
2013-03-15 22:50:00,48.0,38.0,29.80,WSW,250,5.0,8.0,68,0.00,CLR,,0.00,WeatherDisplay:10.37,2013-03-16 05:50:00,
2013-03-15 23:00:00,47.8,38.5,29.83,North,11,3.0,8.0,70,0.00,CLR,,0.00,WeatherDisplay:10.37,2013-03-16 06:00:00,
2013-03-15 23:05:00,48.0,38.3,29.83,NNE,25,2.0,8.0,69,0.00,CLR,,0.00,WeatherDisplay:10.37,2013-03-16 06:05:00,
2013-03-15 23:10:00,48.0,38.6,29.83,NNW,336,3.0,6.0,70,0.00,CLR,,0.00,WeatherDisplay:10.37,2013-03-16 06:10:00,
2013-03-15 23:20:00,47.8,38.9,29.80,ENE,70,3.0,8.0,71,0.00,CLR,,0.00,WeatherDisplay:10.37,2013-03-16 06:20:00,
2013-03-15 23:25:00,48.0,39.4,29.80,East,81,3.0,10.0,72,0.00,CLR,,0.00,WeatherDisplay:10.37,2013-03-16 06:25:00,
2013-03-15 23:30:00,48.2,39.6,29.80,ENE,60,5.0,13.0,72,0.00,CLR,,0.00,WeatherDisplay:10.37,2013-03-16 06:30:00,
2013-03-15 23:35:00,48.2,39.6,29.80,NE,51,2.0,8.0,72,0.00,CLR,,0.00,WeatherDisplay:10.37,2013-03-16 06:35:00,
2013-03-15 23:40:00,48.4,39.4,29.80,ENE,63,0.0,9.0,71,0.00,CLR,,0.00,WeatherDisplay:10.37,2013-03-16 06:40:00,
2013-03-15 23:45:00,48.4,39.0,29.83,East,94,3.0,8.0,70,0.00,CLR,,0.00,WeatherDisplay:10.37,2013-03-16 06:45:00,
2013-03-15 23:50:00,48.4,39.1,29.83,East,80,5.0,10.0,70,0.00,CLR,,0.00,WeatherDisplay:10.37,2013-03-16 06:50:00,
2013-03-15 23:55:00,48.2,38.1,29.83,NE,52,2.0,8.0,68,0.00,CLR,,0.00,WeatherDisplay:10.37,2013-03-16 06:55:00,